Portada
METAR-TAF:

METAR-TAF

Aeropuertos :

Resia Pass, Italia

latitud: 46-50N, longitud: 010-30E, altitud: 1800 m

Observación

El informe se hizo hace 4 horas y 43 minutos, a las 23:55 UTC
Viento 3 kt del norte
Temperatura -3°C
Humedad 86%
Presión 1013 hPa
Visibilidad 10 km o más
sin nubes por debajo de 1500 m y sin presencia de cumulonimbus.

METAR: LIVE 082355Z 36003KT CAVOK M03/M05 Q1013 RMK SKC VIS MIN 9999

Hora: 05:38 (04:38 UTC)


TAF: falta

Observaciones y pronósticos meteorológicos de más de 4000 aeropuertos (mensajes METAR y TAF).

Los puntos amarillos y rojos representan las estaciones disponibles.

Ponga el ratón en el punto deseado para ver el nombre de la estación.

Haga clic para ver las observaciones y los pronósticos meteorológicos.

Para cambiar el mapa : haga clic en los botones verdes con una cruz de color negro para hacer un zoom, en el botón verde con un guión para alejar o en las flechas verdes para mapas adyacentes.


METAR-TAF: